ADDS TAF Board (Experimental) INFO Settings
IDs: Format: Expanded Condensed

KPHX - Phoenix/Sky Harbor, AZ, US

Issued at 1720 UTC 28 Sep 2016
Updated at 1845 UTC 28 Sep 2016
Time1751Z 28/19Z 28/20Z 28/21Z 28/22Z 28/23Z 29/00Z 29/01Z 29/02Z 29/03Z 29/04Z 29/05Z 29/06Z 29/07Z
Type OBS PRVL PRVL PRVL PRVL PRVL PRVL PRVL PRVL PRVL PRVL PRVL PRVL PRVL
VIS 10 >6 >6 >6 >6 >6 >6 >6 >6 >6 >6 >6 >6 >6
CIG 130 120 120 -- -- -- -- 120 120 120 120 120 120 120
Cover BKN BKN BKN SCT SCT SCT SCT BKN BKN BKN BKN BKN BKN BKN
FltCat VFR VFR VFR VFR VFR VFR VFR VFR VFR VFR VFR VFR VFR VFR
WX -- -- -- -- -- -- -- -- -- -- -- -- -- --
WDir 110 120 120 170 170 170 170 VRB VRB VRB VRB VRB VRB VRB
WSpd 7 5 5 11 11 11 11 6 6 6 6 6 6 6
WGst -- -- -- -- -- -- -- -- -- -- -- -- -- --
R07/25
XWnd -2 -3 -3 -11 -11 -11 -11 VRB VRB VRB VRB VRB VRB VRB
HWnd 7 4 4 2 2 2 2 VRB VRB VRB VRB VRB VRB VRB
R08/26
XWnd -2 -3 -3 -11 -11 -11 -11 VRB VRB VRB VRB VRB VRB VRB
HWnd 7 4 4 2 2 2 2 VRB VRB VRB VRB VRB VRB VRB

Raw TAF
KPHX 281720Z 2818/2918 12005KT P6SM BKN120 BKN180
  FM282100 17011KT P6SM SCT120 SCT180
  FM290100 VRB06KT P6SM BKN120
  FM290800 11006KT P6SM BKN150


Raw METAR
KPHX 281751Z 11007KT 10SM SCT090 BKN130 BKN190 BKN250 30/13 A2997 RMK AO2 SLP129 60000 T03000133 10306 20217
KPHX 281651Z 10006KT 10SM SCT090 SCT120 BKN190 BKN250 29/13 A2997 RMK AO2 SLP131 T02940133
KPHX 281551Z 12005KT 10SM FEW095 SCT150 BKN250 28/14 A2997 RMK AO2 SLP131 T02780139 $

METAR Board
Radar Display
Forecast Discussion

TAF Board Legend

Potential Impact
Threat None Slight Moderate High
Visibility (sm) ≥5.1 5.1>X≥3 3>X≥1 <1
Ceiling (100 ft) ≥30.1 30.1>X≥10 10>X≥5 <5
Wind Speed (kt) <10 10≤X<20 20≤X<30 ≥30
Wind Gust (kt) <15 15≤X<25 25≤X<35 ≥35
Weather No Wx Reported VCTS,-TS,-FZRA,SN TS,FZRA +TS,+FZRA,+SN